createdAt,value
2019-05-26T00:00:08.302Z,62.71
2019-05-26T00:02:37.791Z,62.78
2019-05-26T00:05:10.427Z,62.90
2019-05-26T00:07:39.782Z,62.56
2019-05-26T00:10:10.054Z,62.54
2019-05-26T00:12:39.649Z,62.28
2019-05-26T00:15:10.317Z,62.22
2019-05-26T00:17:39.696Z,62.35
2019-05-26T00:20:09.769Z,62.19
2019-05-26T00:22:39.067Z,62.66
2019-05-26T00:25:09.007Z,62.74
2019-05-26T00:27:38.545Z,63.14
2019-05-26T00:30:09.098Z,63.06
2019-05-26T00:32:38.479Z,63.18
2019-05-26T00:35:08.839Z,63.37
2019-05-26T00:37:49.215Z,62.65
2019-05-26T00:40:10.476Z,62.57
2019-05-26T00:42:39.815Z,63.28
2019-05-26T00:45:09.681Z,63.42
2019-05-26T00:47:39.124Z,63.53
2019-05-26T00:50:08.905Z,63.14
2019-05-26T00:52:39.059Z,63.39
2019-05-26T00:55:09.481Z,63.24
2019-05-26T00:57:38.849Z,63.30
2019-05-26T01:00:09.997Z,63.54
2019-05-26T01:02:39.407Z,63.58
2019-05-26T01:05:09.773Z,64.09
2019-05-26T01:07:39.110Z,63.96
2019-05-26T01:10:10.427Z,64.45
2019-05-26T01:12:39.799Z,64.62
2019-05-26T01:15:09.850Z,64.59
2019-05-26T01:17:39.167Z,64.13
2019-05-26T01:20:09.231Z,64.37
2019-05-26T01:22:38.734Z,64.60
2019-05-26T01:25:08.616Z,64.80
2019-05-26T01:27:37.904Z,64.66
2019-05-26T01:30:08.957Z,64.93
2019-05-26T01:32:38.443Z,64.91
2019-05-26T01:35:08.368Z,64.78
2019-05-26T01:37:39.002Z,64.53
2019-05-26T01:40:09.102Z,64.67
2019-05-26T01:42:38.555Z,64.34
2019-05-26T01:45:08.711Z,64.56
2019-05-26T01:47:38.126Z,64.44
2019-05-26T01:50:08.307Z,64.34
2019-05-26T01:52:37.846Z,64.64
2019-05-26T01:55:07.251Z,64.91
2019-05-26T01:57:36.812Z,65.04
2019-05-26T02:00:08.565Z,65.18
2019-05-26T02:02:37.942Z,65.45
2019-05-26T02:05:07.613Z,65.63
2019-05-26T02:07:36.853Z,65.63
2019-05-26T02:10:07.637Z,65.65
2019-05-26T02:12:36.985Z,65.21
2019-05-26T02:15:08.113Z,64.97
2019-05-26T02:17:37.497Z,64.85
2019-05-26T02:20:08.403Z,64.73
2019-05-26T02:22:37.759Z,64.79
2019-05-26T02:25:10.403Z,64.70
2019-05-26T02:27:39.762Z,64.74
2019-05-26T02:30:10.238Z,64.92
2019-05-26T02:32:39.634Z,64.96
2019-05-26T02:35:10.901Z,65.23
2019-05-26T02:37:40.222Z,65.68
2019-05-26T02:40:12.443Z,65.82
2019-05-26T02:42:41.731Z,66.33
2019-05-26T02:45:16.083Z,65.98
2019-05-26T02:47:46.999Z,65.80
2019-05-26T02:50:17.668Z,65.38
2019-05-26T02:52:47.060Z,65.28
2019-05-26T02:55:17.330Z,65.35
2019-05-26T02:57:46.789Z,65.58
2019-05-26T03:00:18.439Z,65.75
2019-05-26T03:02:47.825Z,65.82
2019-05-26T03:05:17.581Z,65.89
2019-05-26T03:07:47.529Z,66.23
2019-05-26T03:10:16.895Z,66.78
2019-05-26T03:12:48.826Z,67.52
2019-05-26T03:15:18.728Z,68.14
2019-05-26T03:17:50.041Z,68.63
2019-05-26T03:20:19.521Z,68.56
2019-05-26T03:22:54.665Z,68.62
2019-05-26T03:25:24.016Z,68.45
2019-05-26T03:27:53.443Z,68.67
2019-05-26T03:30:22.897Z,68.66
2019-05-26T03:32:52.270Z,68.67
2019-05-26T03:35:21.744Z,68.81
2019-05-26T03:37:51.123Z,68.56
2019-05-26T03:40:20.498Z,68.31
2019-05-26T03:42:50.044Z,67.98
2019-05-26T03:45:25.167Z,67.85
2019-05-26T03:47:54.522Z,67.68
2019-05-26T03:50:23.821Z,67.81
2019-05-26T03:52:53.291Z,67.90
2019-05-26T03:55:22.570Z,68.77
2019-05-26T03:57:51.882Z,69.04
2019-05-26T04:00:21.490Z,69.48
2019-05-26T04:02:50.851Z,69.66
2019-05-26T04:05:20.199Z,69.50
2019-05-26T04:07:49.591Z,69.40
2019-05-26T04:10:19.337Z,69.03
2019-05-26T04:12:48.727Z,68.88
2019-05-26T04:15:18.391Z,69.17
2019-05-26T04:17:47.683Z,68.56
2019-05-26T04:20:17.159Z,67.94
2019-05-26T04:22:46.585Z,67.59
2019-05-26T04:25:16.241Z,67.24
2019-05-26T04:27:45.648Z,66.83
2019-05-26T04:30:15.059Z,66.65
2019-05-26T04:32:44.431Z,66.18
2019-05-26T04:35:13.805Z,65.70
2019-05-26T04:37:43.199Z,65.30
2019-05-26T04:40:25.834Z,64.13
2019-05-26T04:42:44.580Z,63.45
2019-05-26T04:45:13.993Z,62.78
2019-05-26T04:47:43.451Z,62.90
2019-05-26T04:50:13.016Z,63.37
2019-05-26T04:52:42.374Z,63.92
2019-05-26T04:55:12.014Z,63.68
2019-05-26T04:57:41.359Z,62.48
2019-05-26T05:00:11.060Z,61.97
2019-05-26T05:02:40.353Z,61.74
2019-05-26T05:05:10.614Z,61.44
2019-05-26T05:07:40.047Z,60.73
2019-05-26T05:10:10.047Z,60.49
2019-05-26T05:12:39.479Z,59.98
2019-05-26T05:15:09.258Z,59.66
2019-05-26T05:17:38.631Z,58.43
2019-05-26T05:20:08.705Z,57.32
2019-05-26T05:22:38.094Z,56.10
2019-05-26T05:25:14.936Z,54.49
2019-05-26T05:27:41.793Z,55.18
2019-05-26T05:30:13.108Z,55.04
2019-05-26T05:32:42.416Z,53.57
2019-05-26T05:35:12.260Z,52.75
2019-05-26T05:37:41.662Z,51.79
2019-05-26T05:40:11.821Z,49.39
2019-05-26T05:42:41.364Z,49.60
2019-05-26T05:45:12.513Z,48.49
2019-05-26T05:47:41.895Z,46.81
2019-05-26T05:50:13.193Z,47.61
2019-05-26T05:52:42.513Z,48.25
2019-05-26T05:55:12.343Z,47.41
2019-05-26T05:57:41.690Z,47.87
2019-05-26T06:00:12.300Z,47.02
2019-05-26T06:02:41.711Z,47.03
2019-05-26T06:05:11.458Z,46.66
2019-05-26T06:07:40.852Z,46.53
2019-05-26T06:10:11.109Z,46.47
2019-05-26T06:12:40.458Z,46.56
2019-05-26T06:15:12.645Z,46.92
2019-05-26T06:17:42.538Z,46.81
2019-05-26T06:20:12.708Z,46.13
2019-05-26T06:22:42.023Z,45.79
2019-05-26T06:25:12.541Z,45.81
2019-05-26T06:27:41.709Z,44.96
2019-05-26T06:30:11.709Z,45.41
2019-05-26T06:32:40.980Z,45.50
2019-05-26T06:35:10.736Z,44.99
2019-05-26T06:37:40.134Z,45.21
2019-05-26T06:40:14.819Z,44.93
2019-05-26T06:42:44.220Z,44.86
2019-05-26T06:45:14.814Z,43.85
2019-05-26T06:47:44.171Z,44.25
2019-05-26T06:50:14.325Z,44.17
2019-05-26T06:52:43.655Z,44.06
2019-05-26T06:55:13.509Z,44.24
2019-05-26T06:57:42.986Z,43.63
2019-05-26T07:00:13.129Z,43.90
2019-05-26T07:02:42.476Z,43.60
2019-05-26T07:05:12.225Z,43.41
2019-05-26T07:07:41.482Z,43.50
2019-05-26T07:10:11.035Z,42.67
2019-05-26T07:12:40.391Z,43.21
2019-05-26T07:15:12.411Z,42.86
2019-05-26T07:17:41.787Z,43.08
2019-05-26T07:20:11.929Z,42.93
2019-05-26T07:22:41.296Z,43.25
2019-05-26T07:25:18.866Z,43.33
2019-05-26T07:27:48.157Z,41.72
2019-05-26T07:30:18.240Z,42.18
2019-05-26T07:32:47.508Z,42.59
2019-05-26T07:35:16.884Z,41.40
2019-05-26T07:37:46.177Z,41.51
2019-05-26T07:40:16.266Z,41.77
2019-05-26T07:42:45.565Z,41.79
2019-05-26T07:45:15.742Z,41.65
2019-05-26T07:47:45.909Z,39.93
2019-05-26T07:50:15.569Z,38.27
2019-05-26T07:52:45.196Z,37.17
2019-05-26T07:55:18.487Z,38.86
2019-05-26T07:57:47.844Z,38.12
2019-05-26T08:00:17.251Z,36.89
2019-05-26T08:02:46.546Z,37.18
2019-05-26T08:05:15.963Z,37.32
2019-05-26T08:07:45.510Z,37.45
2019-05-26T08:10:15.051Z,37.67
2019-05-26T08:12:44.409Z,37.68
2019-05-26T08:15:14.384Z,37.73
2019-05-26T08:17:43.804Z,36.86
2019-05-26T08:20:14.915Z,37.14
2019-05-26T08:22:44.310Z,37.23
2019-05-26T08:25:23.868Z,36.67
2019-05-26T08:27:53.250Z,37.38
2019-05-26T08:30:24.054Z,36.86
2019-05-26T08:32:53.283Z,36.61
2019-05-26T08:35:22.666Z,36.76
2019-05-26T08:37:52.035Z,36.60
2019-05-26T08:40:21.334Z,35.91
2019-05-26T08:42:52.337Z,35.04
2019-05-26T08:45:22.922Z,35.31
2019-05-26T08:47:53.270Z,36.07
2019-05-26T08:50:23.737Z,35.93
2019-05-26T08:52:53.120Z,34.93
2019-05-26T08:55:24.362Z,35.01
2019-05-26T08:57:53.764Z,36.08
2019-05-26T09:00:24.727Z,36.14
2019-05-26T09:02:54.151Z,33.94
2019-05-26T09:05:23.552Z,33.68
2019-05-26T09:07:52.888Z,32.99
2019-05-26T09:10:28.285Z,29.74
2019-05-26T09:13:01.113Z,32.55
2019-05-26T09:15:28.855Z,32.10
2019-05-26T09:17:58.200Z,32.38
2019-05-26T09:20:28.219Z,31.08
2019-05-26T09:22:57.589Z,29.82
2019-05-26T09:25:26.930Z,30.46
2019-05-26T09:27:56.376Z,31.23
2019-05-26T09:30:25.844Z,30.51
2019-05-26T09:32:55.211Z,29.56
2019-05-26T09:35:24.810Z,28.73
2019-05-26T09:37:54.280Z,27.99
2019-05-26T09:40:23.765Z,28.37
2019-05-26T09:42:53.268Z,28.53
2019-05-26T09:45:23.074Z,29.60
2019-05-26T09:47:52.430Z,30.04
2019-05-26T09:50:21.874Z,29.65
2019-05-26T09:52:51.222Z,29.40
2019-05-26T09:55:20.673Z,28.01
2019-05-26T09:57:50.086Z,28.37
2019-05-26T10:00:19.918Z,27.70
2019-05-26T10:02:49.348Z,27.20
2019-05-26T10:05:18.743Z,27.43
2019-05-26T10:07:48.099Z,27.79
2019-05-26T10:10:19.439Z,28.30
2019-05-26T10:12:49.199Z,29.72
2019-05-26T10:15:19.252Z,30.66
2019-05-26T10:17:48.626Z,30.80
2019-05-26T10:20:18.689Z,31.61
2019-05-26T10:22:48.054Z,31.05
2019-05-26T10:25:17.454Z,31.05
2019-05-26T10:27:46.952Z,31.59
2019-05-26T10:30:17.124Z,31.79
2019-05-26T10:32:47.085Z,31.18
2019-05-26T10:35:16.481Z,30.85
2019-05-26T10:37:45.944Z,31.16
2019-05-26T10:40:17.029Z,30.80
2019-05-26T10:42:47.082Z,31.10
2019-05-26T10:45:17.134Z,32.14
2019-05-26T10:47:46.534Z,32.90
2019-05-26T10:50:17.241Z,30.63
2019-05-26T10:52:46.622Z,30.98
2019-05-26T10:55:36.688Z,31.12
2019-05-26T10:58:06.609Z,30.70
2019-05-26T11:00:35.990Z,30.49
2019-05-26T11:03:06.305Z,31.01
2019-05-26T11:05:36.516Z,30.46
2019-05-26T11:08:05.922Z,30.55
2019-05-26T11:10:35.380Z,31.32
2019-05-26T11:13:05.159Z,32.08
2019-05-26T11:15:34.647Z,32.78
2019-05-26T11:18:04.271Z,31.73
2019-05-26T11:20:33.810Z,31.97
2019-05-26T11:23:03.256Z,31.93
2019-05-26T11:25:38.919Z,31.76
2019-05-26T11:28:08.578Z,32.76
2019-05-26T11:30:38.059Z,32.75
2019-05-26T11:33:07.470Z,32.08
2019-05-26T11:35:36.936Z,32.72
2019-05-26T11:38:06.429Z,32.49
2019-05-26T11:40:35.934Z,32.76
2019-05-26T11:43:16.406Z,32.66
2019-05-26T11:45:36.702Z,32.73
2019-05-26T11:48:06.078Z,31.78
2019-05-26T11:50:35.702Z,32.17
2019-05-26T11:53:05.128Z,32.71
2019-05-26T11:55:40.341Z,31.88
2019-05-26T11:58:10.094Z,31.36
2019-05-26T12:00:39.660Z,31.21
2019-05-26T12:03:09.045Z,30.74
2019-05-26T12:05:38.427Z,30.75
2019-05-26T12:08:07.990Z,30.18
2019-05-26T12:10:37.349Z,29.66
2019-05-26T12:13:06.901Z,29.64
2019-05-26T12:15:37.199Z,28.96
2019-05-26T12:18:06.715Z,28.98
2019-05-26T12:20:36.154Z,28.48
2019-05-26T12:23:05.620Z,27.68
2019-05-26T12:25:34.999Z,27.66
2019-05-26T12:28:04.481Z,27.14
2019-05-26T12:30:33.892Z,27.28
2019-05-26T12:33:03.335Z,27.64
2019-05-26T12:35:46.681Z,27.68
2019-05-26T12:38:16.349Z,27.52
2019-05-26T12:40:46.200Z,28.76
2019-05-26T12:43:15.634Z,28.36
2019-05-26T12:45:45.011Z,28.27
2019-05-26T12:48:14.439Z,27.16
2019-05-26T12:50:43.901Z,27.37
2019-05-26T12:53:13.374Z,27.21
2019-05-26T12:55:42.798Z,26.47
2019-05-26T12:58:12.173Z,26.46
2019-05-26T13:00:48.857Z,26.30
2019-05-26T13:03:12.635Z,25.28
2019-05-26T13:05:42.985Z,25.63
2019-05-26T13:08:12.393Z,26.47
2019-05-26T13:10:41.791Z,26.68
2019-05-26T13:13:11.073Z,26.29
2019-05-26T13:15:40.432Z,26.09
2019-05-26T13:18:09.848Z,25.55
2019-05-26T13:20:39.319Z,25.20
2019-05-26T13:23:08.807Z,25.05
2019-05-26T13:25:43.989Z,26.57
2019-05-26T13:28:13.272Z,27.79
2019-05-26T13:30:42.641Z,27.14
2019-05-26T13:33:12.096Z,26.95
2019-05-26T13:35:41.516Z,26.40
2019-05-26T13:38:11.025Z,26.95
2019-05-26T13:40:40.465Z,27.12
2019-05-26T13:43:09.909Z,27.63
2019-05-26T13:45:39.287Z,27.42
2019-05-26T13:48:08.695Z,27.36
2019-05-26T13:50:38.078Z,27.32
2019-05-26T13:53:07.451Z,27.22
2019-05-26T13:55:49.019Z,27.66
2019-05-26T13:58:18.411Z,27.79
2019-05-26T14:00:47.779Z,28.53
2019-05-26T14:03:17.214Z,28.67
2019-05-26T14:05:46.667Z,28.21
2019-05-26T14:08:15.957Z,27.30
2019-05-26T14:10:45.368Z,26.98
2019-05-26T14:13:14.738Z,26.63
2019-05-26T14:15:44.104Z,26.93
2019-05-26T14:18:14.849Z,27.72
2019-05-26T14:20:45.908Z,28.08
2019-05-26T14:23:15.325Z,27.96
2019-05-26T14:25:44.737Z,28.17
2019-05-26T14:28:14.169Z,27.45
2019-05-26T14:30:43.620Z,28.01
2019-05-26T14:33:13.027Z,28.25
2019-05-26T14:35:42.505Z,27.98
2019-05-26T14:38:11.940Z,27.82
2019-05-26T14:40:49.372Z,27.98
2019-05-26T14:43:18.725Z,28.43
2019-05-26T14:45:58.602Z,28.76
2019-05-26T14:48:28.158Z,28.99
2019-05-26T14:50:57.740Z,29.43
2019-05-26T14:53:27.090Z,29.84
2019-05-26T14:55:56.406Z,29.51
2019-05-26T14:58:26.268Z,29.90
2019-05-26T15:00:55.736Z,29.88
2019-05-26T15:03:25.182Z,30.34
2019-05-26T15:06:05.473Z,30.72
2019-05-26T15:08:25.930Z,30.74
2019-05-26T15:10:55.291Z,30.81
2019-05-26T15:13:24.747Z,31.30
2019-05-26T15:16:08.795Z,31.60
2019-05-26T15:18:25.288Z,31.87
2019-05-26T15:20:56.141Z,31.97
2019-05-26T15:23:25.724Z,31.79
2019-05-26T15:25:55.160Z,31.80
2019-05-26T15:28:24.525Z,30.97
2019-05-26T15:30:54.002Z,31.82
2019-05-26T15:33:23.460Z,31.68
2019-05-26T15:35:52.795Z,31.70
2019-05-26T15:38:22.449Z,31.97
2019-05-26T15:40:54.899Z,31.97
2019-05-26T15:43:24.413Z,32.35
2019-05-26T15:45:53.932Z,32.51
2019-05-26T15:48:23.542Z,32.15
2019-05-26T15:50:53.051Z,32.29
2019-05-26T15:53:22.335Z,31.72
2019-05-26T15:55:51.620Z,32.08
2019-05-26T15:58:21.160Z,32.20
2019-05-26T16:00:50.562Z,32.69
2019-05-26T16:03:19.936Z,32.95
2019-05-26T16:05:49.388Z,33.29
2019-05-26T16:08:18.891Z,33.70
2019-05-26T16:11:00.586Z,33.58
2019-05-26T16:13:30.101Z,32.79
2019-05-26T16:15:59.504Z,33.17
2019-05-26T16:18:28.848Z,33.60
2019-05-26T16:21:03.024Z,34.03
2019-05-26T16:23:29.369Z,34.16
2019-05-26T16:25:59.108Z,34.75
2019-05-26T16:28:28.583Z,35.42
2019-05-26T16:30:58.028Z,35.95
2019-05-26T16:33:27.397Z,36.18
2019-05-26T16:35:57.796Z,36.37
2019-05-26T16:38:27.172Z,36.65
2019-05-26T16:40:58.261Z,36.90
2019-05-26T16:43:27.724Z,36.88
2019-05-26T16:45:57.512Z,37.20
2019-05-26T16:48:27.183Z,37.43
2019-05-26T16:50:56.785Z,37.30
2019-05-26T16:53:26.369Z,37.72
2019-05-26T16:55:55.761Z,37.88
2019-05-26T16:58:25.190Z,38.36
2019-05-26T17:00:54.479Z,38.54
2019-05-26T17:03:23.981Z,38.58
2019-05-26T17:06:07.048Z,38.84
2019-05-26T17:08:24.917Z,38.95
2019-05-26T17:10:56.022Z,38.74
2019-05-26T17:13:26.075Z,38.98
2019-05-26T17:15:55.909Z,39.34
2019-05-26T17:18:25.519Z,39.40
2019-05-26T17:20:55.016Z,39.42
2019-05-26T17:23:24.832Z,39.33
2019-05-26T17:25:54.672Z,39.36
2019-05-26T17:28:24.165Z,39.47
2019-05-26T17:30:53.701Z,39.44
2019-05-26T17:33:23.255Z,39.63
2019-05-26T17:35:52.726Z,39.59
2019-05-26T17:38:22.043Z,39.85
2019-05-26T17:40:51.503Z,40.12
2019-05-26T17:43:20.968Z,40.04
2019-05-26T17:45:50.577Z,40.38
2019-05-26T17:48:20.095Z,40.54
2019-05-26T17:50:49.550Z,40.80
2019-05-26T17:53:18.950Z,40.64
2019-05-26T17:56:04.696Z,41.00
2019-05-26T17:58:34.155Z,41.16
2019-05-26T18:01:03.796Z,41.19
2019-05-26T18:03:33.275Z,41.36
2019-05-26T18:06:02.719Z,41.38
2019-05-26T18:08:35.919Z,41.31
2019-05-26T18:11:04.593Z,41.68
2019-05-26T18:13:34.189Z,41.67
2019-05-26T18:16:03.925Z,41.81
2019-05-26T18:18:33.415Z,41.89
2019-05-26T18:21:02.962Z,42.09
2019-05-26T18:23:32.540Z,42.18
2019-05-26T18:26:01.946Z,42.37
2019-05-26T18:28:31.317Z,42.59
2019-05-26T18:31:00.621Z,42.73
2019-05-26T18:33:30.238Z,43.00
2019-05-26T18:35:59.705Z,43.15
2019-05-26T18:38:29.080Z,43.34
2019-05-26T18:41:10.358Z,43.28
2019-05-26T18:43:39.938Z,43.61
2019-05-26T18:46:09.298Z,43.63
2019-05-26T18:48:38.745Z,43.85
2019-05-26T18:51:08.175Z,44.04
2019-05-26T18:53:37.607Z,44.34
2019-05-26T18:56:06.974Z,44.37
2019-05-26T18:58:36.678Z,44.61
2019-05-26T19:01:06.950Z,44.71
2019-05-26T19:03:36.400Z,44.85
2019-05-26T19:06:05.943Z,44.97
2019-05-26T19:08:35.360Z,45.16
2019-05-26T19:11:05.089Z,45.32
2019-05-26T19:13:35.573Z,44.95
2019-05-26T19:16:05.452Z,45.33
2019-05-26T19:18:34.834Z,45.58
2019-05-26T19:21:04.866Z,45.59
2019-05-26T19:23:38.019Z,45.60
2019-05-26T19:26:15.711Z,45.62
2019-05-26T19:28:45.205Z,45.68
2019-05-26T19:31:14.840Z,45.41
2019-05-26T19:33:44.210Z,45.79
2019-05-26T19:36:13.848Z,45.90
2019-05-26T19:38:43.226Z,46.08
2019-05-26T19:41:12.880Z,46.05
2019-05-26T19:43:42.491Z,47.08
2019-05-26T19:46:13.856Z,47.20
2019-05-26T19:48:43.471Z,47.57
2019-05-26T19:51:13.003Z,47.78
2019-05-26T19:53:42.352Z,48.26
2019-05-26T19:56:15.090Z,48.30
2019-05-26T19:58:44.533Z,48.75
2019-05-26T20:01:13.846Z,48.98
2019-05-26T20:03:44.129Z,49.53
2019-05-26T20:06:13.648Z,49.35
2019-05-26T20:08:43.027Z,49.99
2019-05-26T20:11:12.441Z,49.86
2019-05-26T20:13:41.888Z,50.13
2019-05-26T20:16:11.287Z,50.38
2019-05-26T20:18:40.693Z,50.19
2019-05-26T20:21:10.096Z,50.38
2019-05-26T20:23:39.425Z,50.83
2019-05-26T20:26:21.167Z,50.84
2019-05-26T20:28:50.971Z,51.08
2019-05-26T20:31:20.429Z,51.17
2019-05-26T20:33:50.043Z,51.15
2019-05-26T20:36:19.433Z,50.85
2019-05-26T20:38:48.818Z,50.93
2019-05-26T20:41:18.234Z,50.33
2019-05-26T20:43:47.623Z,50.14
2019-05-26T20:46:17.130Z,50.68
2019-05-26T20:48:46.821Z,52.59
2019-05-26T20:51:16.188Z,54.94
2019-05-26T20:53:45.801Z,55.95
2019-05-26T20:56:15.279Z,57.42
2019-05-26T20:58:44.901Z,59.19
2019-05-26T21:01:14.735Z,59.96
2019-05-26T21:03:44.918Z,61.87
2019-05-26T21:06:15.043Z,62.45
2019-05-26T21:08:44.415Z,63.70
2019-05-26T21:11:15.456Z,64.19
2019-05-26T21:13:44.982Z,64.46
2019-05-26T21:16:14.359Z,65.05
2019-05-26T21:18:43.771Z,64.82
2019-05-26T21:21:13.146Z,65.11
2019-05-26T21:23:42.540Z,65.17
2019-05-26T21:26:12.104Z,65.54
2019-05-26T21:28:41.346Z,65.74
2019-05-26T21:31:10.794Z,66.36
2019-05-26T21:33:40.308Z,65.94
2019-05-26T21:36:10.022Z,66.07
2019-05-26T21:38:39.416Z,65.82
2019-05-26T21:41:26.871Z,66.16
2019-05-26T21:43:56.462Z,67.00
2019-05-26T21:46:25.937Z,66.77
2019-05-26T21:48:55.369Z,67.25
2019-05-26T21:51:25.669Z,67.43
2019-05-26T21:53:55.056Z,67.77
2019-05-26T21:56:30.544Z,68.02
2019-05-26T21:58:59.955Z,68.04
2019-05-26T22:01:29.817Z,68.23
2019-05-26T22:04:05.015Z,67.59
2019-05-26T22:06:35.984Z,68.14
2019-05-26T22:09:07.932Z,68.67
2019-05-26T22:11:37.387Z,68.69
2019-05-26T22:14:06.789Z,68.67
2019-05-26T22:16:37.949Z,68.73
2019-05-26T22:19:07.575Z,68.97
2019-05-26T22:21:37.062Z,68.98
2019-05-26T22:24:06.513Z,69.00
2019-05-26T22:26:36.061Z,69.14
2019-05-26T22:29:05.557Z,68.85
2019-05-26T22:31:35.796Z,68.96
2019-05-26T22:34:05.441Z,69.49
2019-05-26T22:36:35.418Z,69.91
2019-05-26T22:39:06.665Z,69.95
2019-05-26T22:41:36.018Z,70.30
2019-05-26T22:44:05.400Z,70.23
2019-05-26T22:46:34.926Z,70.29
2019-05-26T22:49:04.523Z,70.22
2019-05-26T22:51:33.956Z,70.33
2019-05-26T22:54:03.284Z,69.98
2019-05-26T22:56:32.690Z,69.98
2019-05-26T22:59:02.056Z,69.80
2019-05-26T23:01:31.571Z,70.01
2019-05-26T23:04:03.239Z,70.09
2019-05-26T23:06:32.129Z,70.02
2019-05-26T23:09:01.751Z,70.35
2019-05-26T23:11:31.172Z,70.40
2019-05-26T23:14:00.558Z,70.48
2019-05-26T23:16:29.890Z,70.55
2019-05-26T23:18:59.470Z,70.37
2019-05-26T23:21:28.841Z,70.82
2019-05-26T23:23:58.209Z,71.01
2019-05-26T23:26:34.865Z,71.47
2019-05-26T23:29:04.236Z,71.52
2019-05-26T23:31:33.548Z,71.30
2019-05-26T23:34:02.897Z,71.60
2019-05-26T23:36:32.320Z,71.67
2019-05-26T23:39:01.905Z,71.90
2019-05-26T23:41:34.603Z,71.81
2019-05-26T23:44:03.902Z,72.12
2019-05-26T23:46:33.245Z,71.79
2019-05-26T23:49:02.555Z,71.71
2019-05-26T23:51:31.870Z,72.03
2019-05-26T23:54:01.223Z,71.88
2019-05-26T23:56:30.629Z,71.51
2019-05-26T23:58:59.942Z,71.44
